Flight Track Log - Related Links

Times and Time Zones

All times are in EDT time to prevent confusion due to time zone crossing. See the N589H flight status page for this flight to view local times or setup timezone preferences in your user account.

Time Position Orientation Groundspeed Altitude Reporting Facility
EDT Latitude Longitude Course Direction KTS MPH feet Rate Location/Type
Fri 02:15:19 PM 24.9881 -77.4664 201° Southwest 205 236 3,500  Level Miami Center
Fri 02:16:20 PM 24.9983 -77.5147 283° West 107 123 5,800 2,300 Climbing Miami Center
Fri 02:17:19 PM 25.0525 -77.5469 332° Northwest 122 140 8,100 2,370 Climbing Miami Center
Fri 02:18:19 PM 25.0942 -77.5956 313° West 165 190 10,500 2,550 Climbing Miami Center
Fri 02:19:00 PM 25.2765 -77.8763 303° West  Level Estimated
Fri 02:19:19 PM 25.1042 -77.6553 280° West 193 222 13,200  Level Miami Center
Fri 02:20:19 PM 25.1250 -77.7058 294° West 188 216 15,200 1,500 Climbing Miami Center
Fri 02:21:19 PM 25.1494 -77.7703 293° West 202 232 16,200 1,150 Climbing Miami Center
Fri 02:22:19 PM 25.1783 -77.8417 294° West 233 268 17,500 1,300 Climbing Miami Center
Fri 02:23:19 PM 25.2050 -77.9131 292° West 250 288 18,800 1,350 Climbing Miami Center
Fri 02:24:19 PM 25.2339 -77.9844 294° West 256 295 20,200 1,400 Climbing Miami Center
Fri 02:25:19 PM 25.2603 -78.0561 292° West 256 295 21,600 900 Climbing Miami Center
Fri 02:26:19 PM 25.2850 -78.1275 291° West 251 289 22,000 222 Climbing Miami Center
Fri 02:27:07 PM 25.3114 -78.1897 295° West 263 303 22,000  Level Miami Center
Fri 02:28:07 PM 25.3419 -78.2753 292° West 284 327 22,000  Level Miami Center
Fri 02:29:08 PM 25.3747 -78.3608 293° West 297 342 22,000  Level Miami Center
Fri 02:30:07 PM 25.4178 -78.4442 300° West 297 342 22,000  Level Miami Center
Fri 02:31:08 PM 25.4503 -78.5250 294° West 297 342 22,000  Level Miami Center
Fri 02:32:08 PM 25.4931 -78.6086 300° West 303 349 22,000  Level Miami Center
Fri 02:33:08 PM 25.5381 -78.6897 302° West 308 354 22,000  Level Miami Center
Fri 02:34:07 PM 25.5767 -78.7756 297° West 308 354 22,000  Level Miami Center
Fri 02:35:08 PM 25.6153 -78.8592 297° West 308 354 22,000  Level Miami Center
Fri 02:36:08 PM 25.6600 -78.9406 301° West 308 354 22,000  Level Miami Center
Fri 02:37:08 PM 25.7008 -79.0244 298° West 308 354 22,000  Level Miami Center
Fri 02:38:08 PM 25.7414 -79.1081 298° West 308 354 22,000  Level Miami Center
Fri 02:39:08 PM 25.7839 -79.1897 300° West 308 354 22,000  Level Miami Center
Fri 02:40:08 PM 25.8200 -79.2758 295° West 303 349 22,000  Level Miami Center
Fri 02:41:08 PM 25.8586 -79.3503 300° West 309 356 22,000  Level Miami Center
Fri 02:42:08 PM 25.9028 -79.4414 298° West 304 350 22,000  Level Miami Center
Fri 02:43:08 PM 25.9392 -79.5161 298° West 310 357 22,000  Level Miami Center
Fri 02:44:08 PM 25.9856 -79.6072 300° West 310 357 22,000  Level Miami Center
Fri 02:45:08 PM 26.0236 -79.6914 297° West 304 350 22,000  Level Miami Center
Fri 02:46:08 PM 26.0639 -79.7733 299° West 304 350 22,000  Level Miami Center
Fri 02:47:07 PM 26.0958 -79.8411 298° West 304 350 22,000  Level Miami Center
Fri 02:48:07 PM 26.1439 -79.9394 299° West 304 350 22,000  Level Miami Center
Fri 02:49:08 PM 26.1839 -80.0239 298° West 304 350 22,000  Level Miami Center
Fri 02:50:07 PM 26.2258 -80.1083 299° West 304 350 22,000  Level Miami Center
Fri 02:51:07 PM 26.2636 -80.1928 297° West 304 350 22,000  Level Miami Center
Fri 02:52:07 PM 26.3036 -80.2797 297° West 304 350 22,000  Level Miami Center
Fri 02:53:07 PM 26.3433 -80.3619 298° West 304 350 22,000  Level Miami Center
Fri 02:54:07 PM 26.3831 -80.4467 298° West 304 350 22,000  Level Miami Center
Fri 02:55:07 PM 26.4228 -80.5314 298° West 304 350 22,000  Level Miami Center
Fri 02:56:07 PM 26.4583 -80.6067 298° West 304 350 22,000  Level Miami Center
Fri 02:57:07 PM 26.5019 -80.6961 299° West 304 350 22,000 -250 Level Miami Center
Fri 02:58:07 PM 26.5356 -80.7647 299° West 304 350 21,500 -650 Descending Miami Center
Fri 02:59:07 PM 26.5831 -80.8661 298° West 309 356 20,700 -750 Descending Miami Center
Fri 03:00:07 PM 26.6225 -80.9511 297° West 309 356 20,000 -700 Descending Miami Center
Fri 03:01:07 PM 26.6617 -81.0361 297° West 309 356 19,300 -650 Descending Miami Center
Fri 03:02:07 PM 26.6992 -81.1142 298° West 309 356 18,700 -650 Descending Miami Center
Fri 03:03:07 PM 26.7406 -81.1994 299° West 309 356 18,000 -347 Descending Miami Center
Fri 03:04:08 PM 26.7836 -81.2964 296° West 309 356 18,000  Level Miami Center
Fri 03:05:07 PM 26.8228 -81.3817 297° West 309 356 18,000  Level Miami Center
Fri 03:06:19 PM 26.8808 -81.4536 312° West 309 356 18,000  Level Miami Center
Fri 03:07:19 PM 26.9414 -81.5258 313° West 314 361 18,000  Level Miami Center
Fri 03:08:19 PM 27.0031 -81.6192 307° West 314 361 18,000  Level Miami Center
Fri 03:09:19 PM 27.0464 -81.6956 303° West 319 367 18,000  Level Miami Center
Fri 03:10:19 PM 27.0981 -81.7678 309° West 313 360 18,000 -350 Level Miami Center
Fri 03:11:19 PM 27.1628 -81.8311 319° Northwest 301 346 17,300 -1,300 Descending Miami Center
Fri 03:12:19 PM 27.2272 -81.8992 317° Northwest 314 361 15,400 -1,700 Descending Miami Center
Fri 03:13:19 PM 27.2897 -81.9650 317° Northwest 314 361 13,900 -1,600 Descending Miami Center
Fri 03:14:19 PM 27.3522 -82.0286 318° Northwest 309 356 12,200 2,033 Descending Miami Center
Fri 03:15:20 PM 27.4083 -82.0897 316° Northwest 297 342 18,000 -2,132 Climbing Miami Center
Fri 03:16:20 PM 27.4647 -82.1483 317° Northwest 286 329 7,900 -5,050 Descending Miami Center
Fri 03:17:20 PM 27.5167 -82.2114 313° West 281 323 7,900 -550 Level Miami Center
Fri 03:18:20 PM 27.5511 -82.2881 297° West 271 312 6,800 -1,513 Descending Miami Center
Fri 03:19:19 PM 27.5858 -82.3647 297° West 276 318 4,900 -1,450 Descending Miami Center
Fri 03:20:20 PM 27.6225 -82.4414 298° West 276 318 3,900 -496 Descending Miami Center
Fri 03:21:20 PM 27.6572 -82.5181 297° West 276 318 3,900  Level Miami Center
Fri 03:22:20 PM 27.6958 -82.5950 300° West 276 318 3,900  Level Miami Center
Fri 03:23:20 PM 27.7303 -82.6717 297° West 276 318 3,900 -50 Level Miami Center
Fri 03:24:20 PM 27.7731 -82.7489 302° West 276 318 3,800 -488 Descending Miami Center
Fri 03:25:23 PM 27.8500 -82.7833 338° Northwest 261 300 2,900 -634 Descending Tampa TRACON
Fri 03:26:23 PM 27.9167 -82.8000 348° North 231 266 2,500 -526 Descending Tampa TRACON
Fri 03:27:17 PM 27.9667 -82.7833 16° North 203 234 1,900 -579 Descending Tampa TRACON
Fri 03:28:17 PM 27.9833 -82.7500 60° Northeast 150 173 1,400 -550 Descending Tampa TRACON
Fri 03:29:17 PM 27.9667 -82.7000 111° Southeast 141 162 800 -600 Descending Tampa TRACON
Fri 03:31:00 PM 27.9100 -82.6875 99° East  Level Estimated
Fri 03:38:00 PM 27.9100 -82.6875 99° East  Level Estimated
Fri 03:39:00 PM 27.9100 -82.6875 160° South  Level Estimated

Login

Don't have an account? Register now (free) for customized features, flight alerts, and more!